Time;durP1;ratioP1;P1;durP2;ratioP2;P2;SDS_P1;SDS_P2;PMS_P1;PMS_P2;Temp;Humidity;BMP_temperature;BMP_pressure;BME280_temperature;BME280_humidity;BME280_pressure;Samples;Min_cycle;Max_cycle;Signal;HPM_P1;HPM_P2
2021/10/10 00:01:40;;;;;;;0.10;0.10;;;22.50;54.10;;;;;;31629217;28;20047;-45
2021/10/10 00:16:43;;;;;;;0.13;0.13;;;22.50;54.40;;;;;;31625797;28;20124;-47
2021/10/10 00:31:45;;;;;;;0.20;0.20;;;22.50;54.50;;;;;;31624491;28;20049;-51
2021/10/10 00:46:47;;;;;;;0.10;0.10;;;22.40;55.30;;;;;;31622597;28;20082;-46
2021/10/10 01:01:50;;;;;;;11.20;6.70;;;22.50;55.50;;;;;;31621775;28;20096;-46
2021/10/10 01:16:52;;;;;;;2.08;1.40;;;22.30;54.70;;;;;;31620995;28;20044;-48
2021/10/10 01:31:54;;;;;;;0.93;0.85;;;22.40;55.30;;;;;;31631615;28;20044;-46
2021/10/10 01:46:57;;;;;;;0.47;0.47;;;22.40;55.30;;;;;;31643723;28;20048;-46
2021/10/10 02:01:59;;;;;;;0.40;0.30;;;22.40;55.40;;;;;;31642439;28;20064;-46
2021/10/10 02:17:04;;;;;;;0.25;0.25;;;22.80;55.40;;;;;;31640428;28;20049;-46
2021/10/10 02:32:06;;;;;;;0.20;0.20;;;23.20;54.80;;;;;;31638949;28;20064;-47
2021/10/10 02:47:08;;;;;;;0.10;0.10;;;23.00;55.70;;;;;;31628530;28;20182;-46
2021/10/10 03:02:10;;;;;;;0.10;0.10;;;22.90;55.70;;;;;;31635695;28;20048;-46
2021/10/10 03:17:12;;;;;;;0.10;0.10;;;22.90;56.10;;;;;;31634035;28;20040;-45
2021/10/10 03:32:16;;;;;;;0.10;0.10;;;22.70;56.40;;;;;;31632341;28;20060;-51
2021/10/10 03:47:18;;;;;;;0.38;0.10;;;22.70;56.40;;;;;;31629987;28;20076;-50
2021/10/10 04:02:20;;;;;;;0.10;0.10;;;22.60;56.20;;;;;;31627542;28;20102;-48
2021/10/10 04:17:22;;;;;;;0.10;0.10;;;22.60;56.00;;;;;;31626006;28;20044;-47
2021/10/10 04:32:25;;;;;;;0.20;0.20;;;22.50;56.20;;;;;;31624957;28;20060;-48
2021/10/10 04:47:27;;;;;;;12.00;5.57;;;22.50;56.20;;;;;;31622901;28;20139;-45
2021/10/10 05:02:29;;;;;;;6.82;3.65;;;22.40;54.20;;;;;;31621272;28;20036;-46
2021/10/10 05:17:31;;;;;;;3.28;2.25;;;22.30;55.00;;;;;;31620605;28;20112;-48
2021/10/10 05:32:34;;;;;;;17.20;3.58;;;22.20;55.50;;;;;;31619443;28;20078;-45
2021/10/10 05:47:37;;;;;;;27.15;5.75;;;22.70;55.00;;;;;;31620564;28;20057;-44
2021/10/10 06:02:41;;;;;;;27.58;5.68;;;22.90;54.20;;;;;;31624875;28;20064;-44
2021/10/10 06:17:57;;;;;;;15.48;4.80;;;22.80;54.00;;;;;;31634642;28;20051;-44
2021/10/10 06:32:59;;;;;;;18.27;4.82;;;22.70;54.20;;;;;;31646703;28;20045;-48
2021/10/10 06:48:01;;;;;;;15.27;4.25;;;22.60;54.70;;;;;;31608051;28;20106;-46
2021/10/10 07:03:03;;;;;;;16.20;4.00;;;22.40;55.00;;;;;;31635689;28;20052;-47
2021/10/10 07:18:06;;;;;;;9.13;4.25;;;22.30;55.30;;;;;;31634039;28;20074;-46
2021/10/10 07:33:09;;;;;;;7.78;4.20;;;22.30;55.10;;;;;;31631174;28;20048;-47
2021/10/10 07:48:11;;;;;;;9.35;2.95;;;22.80;54.30;;;;;;31630267;28;20064;-47
2021/10/10 08:03:13;;;;;;;9.65;3.67;;;22.90;54.10;;;;;;31626264;28;20045;-42
2021/10/10 08:18:15;;;;;;;10.82;4.95;;;22.70;54.20;;;;;;31618702;28;20052;-46
2021/10/10 08:33:18;;;;;;;10.70;3.95;;;22.60;54.50;;;;;;31624180;28;20068;-46
2021/10/10 08:48:20;;;;;;;9.00;3.20;;;22.50;54.40;;;;;;31617614;28;20104;-48
2021/10/10 09:03:22;;;;;;;8.68;3.72;;;22.40;54.90;;;;;;31608029;28;20044;-45
2021/10/10 09:18:41;;;;;;;5.03;2.85;;;22.40;54.70;;;;;;31622935;28;20044;-44
2021/10/10 09:34:04;;;;;;;11.30;3.42;;;22.30;54.60;;;;;;31625099;28;20051;-45
2021/10/10 09:49:27;;;;;;;6.68;2.92;;;22.30;54.90;;;;;;31618795;28;20108;-44
2021/10/10 10:04:47;;;;;;;8.75;3.67;;;22.20;54.90;;;;;;31646147;28;20123;-45
2021/10/10 10:19:50;;;;;;;6.93;2.83;;;22.70;55.00;;;;;;31645282;28;20047;-49
2021/10/10 10:35:10;;;;;;;6.40;2.45;;;22.90;54.60;;;;;;31638733;28;20072;-43
2021/10/10 10:50:14;;;;;;;6.63;2.80;;;22.90;54.70;;;;;;31279404;28;9999719;-45
2021/10/10 11:05:41;;;;;;;3.80;2.13;;;22.70;54.60;;;;;;31636555;28;20067;-45
2021/10/10 11:20:54;;;;;;;4.70;2.63;;;22.70;54.90;;;;;;31637634;28;20089;-45
2021/10/10 11:35:56;;;;;;;8.93;3.05;;;22.60;54.70;;;;;;31629485;28;20051;-46
2021/10/10 11:50:59;;;;;;;6.13;3.17;;;22.50;54.90;;;;;;31717561;28;20511;-44
2021/10/10 12:06:02;;;;;;;6.95;2.70;;;22.40;55.00;;;;;;31751240;28;20051;-43
2021/10/10 12:21:27;;;;;;;6.60;2.47;;;22.50;54.90;;;;;;31753290;28;20059;-45
2021/10/10 12:48:08;;;;;;;3.85;2.50;;;22.30;55.30;;;;;;31611539;22;10001472;-50
2021/10/10 13:03:11;;;;;;;4.00;2.58;;;22.20;55.60;;;;;;31983715;28;20054;-57
2021/10/10 13:18:13;;;;;;;3.28;2.03;;;22.30;55.30;;;;;;31981298;28;20035;-57
2021/10/10 13:33:15;;;;;;;4.82;2.55;;;22.70;54.60;;;;;;31979414;28;20046;-57
2021/10/10 13:48:17;;;;;;;7.00;2.50;;;22.90;54.30;;;;;;31864743;28;20147;-57
2021/10/10 14:03:20;;;;;;;10.02;3.20;;;22.70;54.30;;;;;;31637972;28;20048;-57
2021/10/10 14:18:23;;;;;;;5.00;2.55;;;22.60;54.30;;;;;;31629390;28;20119;-58
2021/10/10 14:33:25;;;;;;;3.53;2.35;;;22.40;54.50;;;;;;31635474;28;20045;-58
2021/10/10 14:48:27;;;;;;;5.13;2.10;;;22.40;54.80;;;;;;31631528;28;20064;-57
2021/10/10 15:03:29;;;;;;;4.35;2.22;;;22.30;55.00;;;;;;31630936;28;20104;-58
2021/10/10 15:18:36;;;;;;;5.22;1.75;;;22.50;54.30;;;;;;31630109;28;20044;-58
2021/10/10 15:33:38;;;;;;;3.45;2.20;;;22.80;54.20;;;;;;31628227;28;20117;-58
2021/10/10 15:48:40;;;;;;;2.97;1.90;;;22.80;54.00;;;;;;31626277;28;20056;-58
2021/10/10 16:03:43;;;;;;;6.40;2.50;;;22.60;54.10;;;;;;31676365;28;20048;-56
2021/10/10 16:18:45;;;;;;;12.73;3.10;;;22.50;54.50;;;;;;31749742;28;20044;-51
2021/10/10 16:33:50;;;;;;;8.30;2.25;;;22.60;55.10;;;;;;31751783;28;20115;-57
2021/10/10 16:48:52;;;;;;;9.45;3.33;;;22.50;55.50;;;;;;31678709;28;20084;-57
2021/10/10 17:15:15;;;;;;;9.63;3.72;;;22.50;56.10;;;;;;38980415;21;1429414;-66
2021/10/10 17:30:19;;;;;;;12.48;3.05;;;22.60;56.30;;;;;;38996427;22;20015;-68
2021/10/10 17:45:22;;;;;;;6.05;2.75;;;22.50;57.10;;;;;;39086626;22;20027;-65
2021/10/10 18:00:36;;;;;;;9.88;3.00;;;22.40;57.30;;;;;;39140983;22;20023;-45
2021/10/10 18:15:38;;;;;;;14.98;3.75;;;22.40;56.80;;;;;;39177954;22;20016;-46
2021/10/10 18:30:41;;;;;;;11.25;4.32;;;22.40;57.10;;;;;;39109394;22;20019;-46
2021/10/10 18:45:46;;;;;;;8.13;3.58;;;22.40;57.10;;;;;;39108778;22;20022;-56
2021/10/10 19:00:48;;;;;;;8.27;3.70;;;22.50;57.60;;;;;;39118079;22;20016;-45
2021/10/10 19:15:51;;;;;;;4.78;2.67;;;22.50;57.20;;;;;;39118444;22;20012;-42
2021/10/10 19:30:53;;;;;;;11.70;3.95;;;22.50;57.00;;;;;;39116553;22;20018;-56
2021/10/10 19:45:55;;;;;;;7.38;4.55;;;22.50;57.20;;;;;;39119233;22;20016;-44
2021/10/10 20:00:57;;;;;;;1.63;1.00;;;22.40;56.80;;;;;;39118516;22;20023;-42
2021/10/10 20:16:01;;;;;;;0.63;0.50;;;22.50;56.80;;;;;;39118610;22;20046;-46
2021/10/10 20:31:03;;;;;;;0.30;0.30;;;22.60;56.70;;;;;;39091324;22;20018;-43
2021/10/10 20:46:07;;;;;;;28.65;21.45;;;22.70;56.70;;;;;;39112248;22;20100;-48
2021/10/10 21:01:11;;;;;;;2.38;2.03;;;22.60;56.10;;;;;;39113363;22;20020;-46
2021/10/10 21:16:13;;;;;;;1.92;1.02;;;22.70;56.20;;;;;;39111673;22;20028;-43
2021/10/10 21:46:24;;;;;;;0.40;0.40;;;22.60;56.90;;;;;;39114888;22;20031;-56
2021/10/10 22:01:29;;;;;;;0.57;0.40;;;22.60;57.00;;;;;;39118355;22;20024;-41
2021/10/10 22:16:31;;;;;;;2.30;0.28;;;22.60;57.00;;;;;;39120450;22;20098;-47
2021/10/10 22:31:33;;;;;;;4.40;0.40;;;22.60;56.60;;;;;;39122287;22;20015;-46
2021/10/10 22:46:35;;;;;;;0.10;0.10;;;22.50;56.30;;;;;;39120586;22;20015;-41
2021/10/10 23:01:37;;;;;;;0.35;0.20;;;22.40;57.00;;;;;;39117313;22;20020;-56
2021/10/10 23:16:40;;;;;;;0.30;0.20;;;22.40;57.00;;;;;;39114584;22;20011;-45
2021/10/10 23:31:42;;;;;;;0.10;0.10;;;22.30;57.10;;;;;;39114631;22;20032;-41
2021/10/10 23:46:44;;;;;;;1.35;0.10;;;22.30;57.00;;;;;;39087281;22;20079;-42
